Time;durP1;ratioP1;P1;durP2;ratioP2;P2;SDS_P1;SDS_P2;PMS_P1;PMS_P2;Temp;Humidity;BMP_temperature;BMP_pressure;BME280_temperature;BME280_humidity;BME280_pressure;Samples;Min_cycle;Max_cycle;Signal;HPM_P1;HPM_P2
2022/03/02 00:01:25;;;;;;;30.38;27.48;;;1.90;99.90;;;;;;5001456;28;20069;-74
2022/03/02 00:03:52;;;;;;;36.13;28.75;;;1.90;99.90;;;;;;5020071;28;20612;-73
2022/03/02 00:06:19;;;;;;;31.17;27.88;;;1.80;99.90;;;;;;5019636;28;20099;-74
2022/03/02 00:08:45;;;;;;;29.52;26.65;;;1.90;99.90;;;;;;5002123;28;20046;-74
2022/03/02 00:11:13;;;;;;;31.65;28.55;;;1.80;99.90;;;;;;4983897;28;20628;-74
2022/03/02 00:13:40;;;;;;;32.20;29.02;;;1.70;99.90;;;;;;5018128;28;20045;-73
2022/03/02 00:16:08;;;;;;;33.08;29.60;;;1.70;99.90;;;;;;5018605;28;20100;-73
2022/03/02 00:18:35;;;;;;;33.90;30.10;;;1.80;99.90;;;;;;5020363;28;20601;-73
2022/03/02 00:21:01;;;;;;;31.80;28.83;;;1.80;99.90;;;;;;5013334;28;20058;-74
2022/03/02 00:23:29;;;;;;;30.77;27.77;;;1.90;99.90;;;;;;5018900;28;20100;-73
2022/03/02 00:25:56;;;;;;;31.65;28.48;;;1.80;99.90;;;;;;5019366;28;20439;-74
2022/03/02 00:28:24;;;;;;;31.02;27.85;;;1.70;99.90;;;;;;5019627;28;20079;-73
2022/03/02 00:30:51;;;;;;;29.40;26.77;;;1.80;99.90;;;;;;5000529;28;20752;-74
2022/03/02 00:33:18;;;;;;;28.98;25.90;;;1.70;99.90;;;;;;5002452;28;20049;-73
2022/03/02 00:35:45;;;;;;;30.52;27.33;;;1.70;99.90;;;;;;5001584;28;20033;-74
2022/03/02 00:38:12;;;;;;;34.47;28.88;;;1.60;99.90;;;;;;4985430;28;20136;-74
2022/03/02 00:40:39;;;;;;;32.33;29.13;;;1.60;99.90;;;;;;5017923;28;20045;-74
2022/03/02 00:43:07;;;;;;;31.52;28.15;;;1.60;99.90;;;;;;5017496;28;20684;-74
2022/03/02 00:45:34;;;;;;;31.60;28.27;;;1.60;99.90;;;;;;5021361;28;20448;-73
2022/03/02 00:48:04;;;;;;;31.67;28.60;;;1.60;99.90;;;;;;5026518;28;20100;-73
2022/03/02 00:50:31;;;;;;;32.08;28.65;;;1.70;99.90;;;;;;5015986;28;20049;-74
2022/03/02 00:52:58;;;;;;;33.28;29.67;;;1.70;99.90;;;;;;5019867;28;20057;-73
2022/03/02 00:55:26;;;;;;;33.75;29.92;;;1.70;99.90;;;;;;5001467;28;20061;-74
2022/03/02 00:57:52;;;;;;;34.13;30.63;;;1.70;99.90;;;;;;5001177;28;20109;-73
2022/03/02 01:00:20;;;;;;;36.08;30.63;;;1.60;99.90;;;;;;5001122;28;20053;-74
2022/03/02 01:02:46;;;;;;;40.83;32.35;;;1.80;99.90;;;;;;5007063;28;20049;-74
2022/03/02 01:05:13;;;;;;;42.30;34.17;;;1.80;99.90;;;;;;5002124;28;20058;-74
2022/03/02 01:07:40;;;;;;;35.58;31.77;;;1.80;99.90;;;;;;5000057;28;20403;-74
2022/03/02 01:10:07;;;;;;;37.28;32.35;;;1.80;99.90;;;;;;4999137;28;20626;-73
2022/03/02 01:12:35;;;;;;;41.88;31.90;;;1.80;99.90;;;;;;5007534;28;20038;-74
2022/03/02 01:15:03;;;;;;;34.88;30.98;;;1.90;99.90;;;;;;5000309;28;20058;-73
2022/03/02 01:17:31;;;;;;;34.20;30.58;;;1.80;99.90;;;;;;4982201;28;20080;-74
2022/03/02 01:19:58;;;;;;;38.03;30.90;;;1.70;99.90;;;;;;4999435;28;20741;-74
2022/03/02 01:22:25;;;;;;;36.53;30.90;;;1.60;99.90;;;;;;4998273;28;20069;-74
2022/03/02 01:24:53;;;;;;;33.67;29.35;;;1.70;99.90;;;;;;4981728;28;20045;-74
2022/03/02 01:27:20;;;;;;;33.92;30.35;;;1.80;99.90;;;;;;4999646;28;20073;-73
2022/03/02 01:29:47;;;;;;;34.50;29.42;;;1.80;99.90;;;;;;4998305;28;20069;-74
2022/03/02 01:32:14;;;;;;;31.52;28.52;;;1.90;99.90;;;;;;4992300;28;20236;-74
2022/03/02 01:34:41;;;;;;;31.63;28.40;;;1.80;99.90;;;;;;4998467;28;20045;-73
2022/03/02 01:37:08;;;;;;;33.45;29.85;;;1.80;99.90;;;;;;4999280;28;20761;-73
2022/03/02 01:39:34;;;;;;;33.97;30.48;;;1.70;99.90;;;;;;4999637;28;20050;-73
2022/03/02 01:42:03;;;;;;;35.67;30.95;;;1.80;99.90;;;;;;5007259;28;20050;-73
2022/03/02 01:44:29;;;;;;;32.83;29.48;;;1.70;99.90;;;;;;5013837;28;20044;-74
2022/03/02 01:46:56;;;;;;;35.08;29.83;;;1.70;99.90;;;;;;5021111;28;20057;-74
2022/03/02 01:49:23;;;;;;;33.85;30.25;;;1.60;99.90;;;;;;5002078;28;20046;-74
2022/03/02 01:51:50;;;;;;;31.40;28.13;;;1.60;99.90;;;;;;5000795;28;20050;-74
2022/03/02 01:54:17;;;;;;;32.63;28.63;;;1.70;99.90;;;;;;5002142;28;20057;-73
2022/03/02 01:56:44;;;;;;;32.20;28.92;;;1.70;99.90;;;;;;5001739;28;20099;-76
2022/03/02 01:59:11;;;;;;;33.42;28.98;;;1.80;99.90;;;;;;5001594;28;20053;-72
2022/03/02 02:01:41;;;;;;;31.63;28.30;;;1.80;99.90;;;;;;4987330;28;20068;-74
2022/03/02 02:04:08;;;;;;;30.90;27.73;;;1.80;99.90;;;;;;5022302;28;20485;-73
2022/03/02 02:06:35;;;;;;;32.10;28.90;;;1.70;99.90;;;;;;5002009;28;20413;-73
2022/03/02 02:09:05;;;;;;;32.20;28.33;;;1.60;99.90;;;;;;5003434;28;20053;-73
2022/03/02 02:11:32;;;;;;;31.85;28.45;;;1.60;99.90;;;;;;5009180;28;20049;-73
2022/03/02 02:13:59;;;;;;;30.63;27.38;;;1.60;99.90;;;;;;5024218;28;20053;-73
2022/03/02 02:16:26;;;;;;;32.17;28.75;;;1.70;99.90;;;;;;5023700;28;20049;-73
2022/03/02 02:18:56;;;;;;;31.15;27.73;;;1.60;99.90;;;;;;5024348;28;20408;-73
2022/03/02 02:21:23;;;;;;;32.20;29.00;;;1.70;99.90;;;;;;5041872;28;20101;-75
2022/03/02 02:23:50;;;;;;;31.20;28.02;;;1.70;99.90;;;;;;5037553;28;20049;-73
2022/03/02 02:26:19;;;;;;;32.65;29.10;;;1.60;99.90;;;;;;5003919;28;20513;-75
2022/03/02 02:28:46;;;;;;;30.90;27.80;;;1.70;99.90;;;;;;5004031;28;20038;-72
2022/03/02 02:31:13;;;;;;;28.65;25.92;;;1.60;99.90;;;;;;5018405;28;20046;-74
2022/03/02 02:33:40;;;;;;;30.48;27.05;;;1.50;99.90;;;;;;5004500;28;20056;-73
2022/03/02 02:36:07;;;;;;;29.88;26.88;;;1.40;99.90;;;;;;5022056;28;20050;-73
2022/03/02 02:38:34;;;;;;;30.38;27.30;;;1.40;99.90;;;;;;5004531;28;20042;-74
2022/03/02 02:41:01;;;;;;;31.25;27.92;;;1.40;99.90;;;;;;5002323;28;20115;-75
2022/03/02 02:43:28;;;;;;;30.02;27.00;;;1.40;99.90;;;;;;5014103;28;20167;-74
2022/03/02 02:45:55;;;;;;;29.60;26.63;;;1.50;99.90;;;;;;5003842;28;20129;-73
2022/03/02 02:48:22;;;;;;;30.80;27.77;;;1.50;99.90;;;;;;5013187;28;20573;-73
2022/03/02 02:50:49;;;;;;;30.50;27.50;;;1.40;99.90;;;;;;5002900;28;20488;-75
2022/03/02 02:53:17;;;;;;;30.05;27.15;;;1.30;99.90;;;;;;5003337;28;20750;-73
2022/03/02 02:55:45;;;;;;;31.40;28.33;;;1.30;99.90;;;;;;5001851;28;20045;-73
2022/03/02 02:58:12;;;;;;;32.15;27.52;;;1.30;99.90;;;;;;5021428;28;20049;-73
2022/03/02 03:00:43;;;;;;;29.25;26.33;;;1.40;99.90;;;;;;4996210;28;20045;-73
2022/03/02 03:03:10;;;;;;;30.88;27.55;;;1.40;99.90;;;;;;4987652;28;20555;-73
2022/03/02 03:05:37;;;;;;;30.52;27.42;;;1.40;99.90;;;;;;5021603;28;20045;-74
2022/03/02 03:08:06;;;;;;;31.08;27.77;;;1.40;99.90;;;;;;5003410;28;20056;-73
2022/03/02 03:10:33;;;;;;;31.17;27.98;;;1.40;99.90;;;;;;5017683;28;20263;-72
2022/03/02 03:13:01;;;;;;;31.05;27.75;;;1.50;99.90;;;;;;5016496;28;20057;-73
2022/03/02 03:15:28;;;;;;;34.20;30.52;;;1.40;99.90;;;;;;5023119;28;20483;-73
2022/03/02 03:17:56;;;;;;;34.55;29.25;;;1.50;99.90;;;;;;5008245;28;20046;-75
2022/03/02 03:20:25;;;;;;;31.63;28.30;;;1.60;99.90;;;;;;5001754;28;20103;-75
2022/03/02 03:22:53;;;;;;;31.63;28.02;;;1.70;99.90;;;;;;5003625;28;20562;-73
2022/03/02 03:25:21;;;;;;;30.98;27.90;;;1.60;99.90;;;;;;5021543;28;20501;-73
2022/03/02 03:27:49;;;;;;;31.05;27.85;;;1.40;99.90;;;;;;5021301;28;20529;-73
2022/03/02 03:30:19;;;;;;;29.65;26.55;;;1.40;99.90;;;;;;5020190;28;20645;-75
2022/03/02 03:32:46;;;;;;;30.15;27.17;;;1.40;99.90;;;;;;5003018;28;20543;-73
2022/03/02 03:35:15;;;;;;;29.17;26.23;;;1.40;99.90;;;;;;5002203;28;20065;-73
2022/03/02 03:37:43;;;;;;;28.20;25.50;;;1.20;99.90;;;;;;5003283;28;20045;-73
2022/03/02 03:40:12;;;;;;;30.95;27.60;;;1.10;99.90;;;;;;5002558;28;20053;-72
2022/03/02 03:42:40;;;;;;;29.08;26.27;;;1.20;99.90;;;;;;5028250;28;20081;-73
2022/03/02 03:45:08;;;;;;;28.98;25.88;;;1.20;99.90;;;;;;5036026;28;20049;-73
2022/03/02 03:47:36;;;;;;;33.22;26.90;;;1.20;99.90;;;;;;5018464;28;20094;-73
2022/03/02 03:50:04;;;;;;;29.73;26.90;;;1.20;99.90;;;;;;5002125;28;20103;-75
2022/03/02 03:52:31;;;;;;;29.27;26.45;;;1.10;99.90;;;;;;5008150;28;20057;-73
2022/03/02 03:54:57;;;;;;;28.17;25.45;;;1.10;99.90;;;;;;5017671;28;20052;-74
2022/03/02 03:57:24;;;;;;;30.38;27.25;;;1.20;99.90;;;;;;5001661;28;20118;-73
2022/03/02 03:59:51;;;;;;;30.55;27.02;;;1.30;99.90;;;;;;4983165;28;20081;-73
2022/03/02 04:02:18;;;;;;;32.55;27.05;;;1.30;99.90;;;;;;5000260;28;20543;-73
2022/03/02 04:04:45;;;;;;;29.30;26.38;;;1.30;99.90;;;;;;4986174;28;20046;-75
2022/03/02 04:07:11;;;;;;;28.75;25.92;;;1.20;99.90;;;;;;5001631;28;20049;-73
2022/03/02 04:09:39;;;;;;;31.65;27.63;;;1.10;99.90;;;;;;5018799;28;20045;-73
2022/03/02 04:12:06;;;;;;;29.95;26.10;;;1.00;99.90;;;;;;4995190;28;20111;-75
2022/03/02 04:14:33;;;;;;;29.17;26.35;;;1.10;99.90;;;;;;5021993;28;20052;-73
2022/03/02 04:16:59;;;;;;;27.38;24.88;;;1.20;99.90;;;;;;5020836;28;20063;-72
2022/03/02 04:19:26;;;;;;;27.90;25.13;;;1.20;99.90;;;;;;5005678;28;20468;-75
2022/03/02 04:21:53;;;;;;;28.00;25.10;;;1.20;99.90;;;;;;5020275;28;20044;-73
2022/03/02 04:24:19;;;;;;;28.35;25.30;;;1.10;99.90;;;;;;5026555;28;20045;-75
2022/03/02 04:26:46;;;;;;;27.98;25.30;;;1.10;99.90;;;;;;4998294;28;20081;-75
2022/03/02 04:29:14;;;;;;;27.05;24.52;;;1.10;99.90;;;;;;5017416;28;20099;-75
2022/03/02 04:31:41;;;;;;;27.52;24.95;;;1.20;99.90;;;;;;5000393;28;20597;-72
2022/03/02 04:34:13;;;;;;;28.63;25.67;;;1.10;99.90;;;;;;5002920;28;20464;-75
2022/03/02 04:36:40;;;;;;;28.25;25.35;;;1.10;99.90;;;;;;5018664;28;20472;-74
2022/03/02 04:39:07;;;;;;;28.15;25.35;;;1.10;99.90;;;;;;5001679;28;20517;-75
2022/03/02 04:41:34;;;;;;;28.85;26.00;;;1.10;99.90;;;;;;5005899;28;20258;-76
2022/03/02 04:44:00;;;;;;;28.25;25.20;;;1.10;99.90;;;;;;5017289;28;20052;-75
2022/03/02 04:46:27;;;;;;;33.17;26.85;;;1.00;99.90;;;;;;5004361;28;20447;-75
2022/03/02 04:48:54;;;;;;;28.90;26.05;;;1.00;99.90;;;;;;5024157;28;20056;-75
2022/03/02 04:51:21;;;;;;;30.08;26.92;;;0.90;99.90;;;;;;5003947;28;20053;-76
2022/03/02 04:53:50;;;;;;;30.88;27.63;;;0.80;99.90;;;;;;4993365;28;20080;-76
2022/03/02 04:56:17;;;;;;;31.27;27.88;;;0.90;99.90;;;;;;4997931;28;20076;-75
2022/03/02 04:58:44;;;;;;;34.50;28.10;;;0.90;99.90;;;;;;4988987;28;20409;-75
2022/03/02 05:01:11;;;;;;;31.80;27.88;;;0.90;99.90;;;;;;5012216;28;20045;-74
2022/03/02 05:03:38;;;;;;;31.85;28.15;;;0.90;99.90;;;;;;5001197;28;20050;-75
2022/03/02 05:06:05;;;;;;;30.90;27.55;;;0.90;99.90;;;;;;5000655;28;20068;-75
2022/03/02 05:08:31;;;;;;;30.25;27.30;;;0.90;99.90;;;;;;5001537;28;20084;-75
2022/03/02 05:10:58;;;;;;;31.40;27.60;;;0.80;99.90;;;;;;5014595;28;20050;-75
2022/03/02 05:13:25;;;;;;;30.02;26.83;;;0.80;99.90;;;;;;5020337;28;20353;-75
2022/03/02 05:15:51;;;;;;;30.73;27.65;;;0.70;99.90;;;;;;5042241;28;20498;-75
2022/03/02 05:18:18;;;;;;;32.15;28.23;;;0.70;99.90;;;;;;5018441;28;20108;-75
2022/03/02 05:20:45;;;;;;;31.88;28.02;;;0.80;99.90;;;;;;5017583;28;20046;-74
2022/03/02 05:23:12;;;;;;;36.35;29.25;;;0.90;99.90;;;;;;5005155;28;20216;-75
2022/03/02 05:25:39;;;;;;;31.88;28.48;;;0.90;99.90;;;;;;5004696;28;20164;-72
2022/03/02 05:28:06;;;;;;;32.75;28.95;;;0.70;99.90;;;;;;5023423;28;20080;-72
2022/03/02 05:30:32;;;;;;;35.47;28.48;;;0.50;99.90;;;;;;4991931;28;20499;-75
2022/03/02 05:32:59;;;;;;;32.90;29.52;;;0.60;99.90;;;;;;5016021;28;20048;-75
2022/03/02 05:35:26;;;;;;;33.22;29.80;;;0.80;99.90;;;;;;5020547;28;20136;-74
2022/03/02 05:37:54;;;;;;;36.38;29.85;;;0.80;99.90;;;;;;5022696;28;20053;-74
2022/03/02 05:40:21;;;;;;;35.92;31.38;;;0.80;99.90;;;;;;5004079;28;20477;-74
2022/03/02 05:42:53;;;;;;;32.05;28.67;;;0.80;99.90;;;;;;5018140;28;20041;-74
2022/03/02 05:45:20;;;;;;;32.40;28.88;;;0.70;99.90;;;;;;5023675;28;20045;-73
2022/03/02 05:47:47;;;;;;;36.38;29.90;;;0.80;99.90;;;;;;5018980;28;20045;-74
2022/03/02 05:50:14;;;;;;;32.30;29.13;;;0.90;99.90;;;;;;5004353;28;20145;-73
2022/03/02 05:52:40;;;;;;;32.42;29.15;;;1.00;99.90;;;;;;5004326;28;20495;-74
2022/03/02 05:55:08;;;;;;;34.47;28.80;;;1.00;99.90;;;;;;5022020;28;20073;-74
2022/03/02 05:57:36;;;;;;;32.17;28.27;;;0.90;99.90;;;;;;5004283;28;20076;-73
2022/03/02 06:00:04;;;;;;;31.95;28.67;;;1.00;99.90;;;;;;5003509;28;20312;-73
2022/03/02 06:02:32;;;;;;;32.17;28.55;;;1.10;99.90;;;;;;5014526;28;20045;-73
2022/03/02 06:04:59;;;;;;;31.15;27.92;;;1.10;99.90;;;;;;5024726;28;20057;-73
2022/03/02 06:07:26;;;;;;;30.38;27.27;;;0.70;99.90;;;;;;5024108;28;20075;-73
2022/03/02 06:09:53;;;;;;;31.52;28.50;;;0.60;99.90;;;;;;5004278;28;20068;-74
2022/03/02 06:12:20;;;;;;;30.70;27.80;;;0.70;99.90;;;;;;5011623;28;20457;-73
2022/03/02 06:14:48;;;;;;;35.70;31.05;;;0.70;99.90;;;;;;5016798;28;20049;-74
2022/03/02 06:17:15;;;;;;;32.65;29.20;;;0.80;99.90;;;;;;5003797;28;20042;-73
2022/03/02 06:19:43;;;;;;;34.97;31.40;;;0.80;99.90;;;;;;4997613;28;20315;-73
2022/03/02 06:22:10;;;;;;;32.83;28.90;;;0.80;99.90;;;;;;4998512;28;20045;-73
2022/03/02 06:24:37;;;;;;;35.75;30.77;;;0.90;99.90;;;;;;5003389;28;20122;-73
2022/03/02 06:27:04;;;;;;;33.75;30.45;;;1.00;99.90;;;;;;5021111;28;20314;-74
2022/03/02 06:29:31;;;;;;;34.78;31.27;;;1.00;99.90;;;;;;5003930;28;20038;-74
2022/03/02 06:31:59;;;;;;;37.63;34.20;;;1.10;99.90;;;;;;5029491;28;20061;-74
2022/03/02 06:34:26;;;;;;;38.55;34.70;;;1.20;99.90;;;;;;5022852;28;20079;-75
2022/03/02 06:36:52;;;;;;;37.63;34.10;;;1.30;99.90;;;;;;5022777;28;20103;-74
2022/03/02 06:39:21;;;;;;;36.33;32.70;;;1.30;99.90;;;;;;5018881;28;20069;-74
2022/03/02 06:41:53;;;;;;;38.35;34.55;;;1.40;99.90;;;;;;5009982;28;20470;-74
2022/03/02 06:44:31;;;;;;;40.67;36.65;;;1.50;99.90;;;;;;5009079;28;20096;-73
2022/03/02 06:47:05;;;;;;;41.20;37.10;;;1.50;99.90;;;;;;4991854;28;20194;-73
2022/03/02 06:49:59;;;;;;;37.33;33.55;;;1.50;99.90;;;;;;4979430;28;20171;-74
2022/03/02 06:52:32;;;;;;;38.08;34.30;;;1.40;99.90;;;;;;4984273;28;20053;-73
2022/03/02 06:55:03;;;;;;;36.35;32.97;;;1.40;99.90;;;;;;4984686;28;20069;-75
2022/03/02 06:57:31;;;;;;;36.15;32.67;;;1.50;99.90;;;;;;4993784;28;20112;-74
2022/03/02 07:00:18;;;;;;;36.42;32.83;;;1.50;99.90;;;;;;4988570;28;20050;-74
2022/03/02 07:02:51;;;;;;;37.17;33.22;;;1.60;99.90;;;;;;4983519;28;20061;-74
2022/03/02 07:05:19;;;;;;;40.33;35.92;;;1.70;99.90;;;;;;5003917;28;20046;-74
2022/03/02 07:07:47;;;;;;;38.97;35.17;;;1.80;99.90;;;;;;4987969;28;20054;-74
2022/03/02 07:10:14;;;;;;;40.97;35.90;;;1.90;99.90;;;;;;4982635;28;20096;-74
2022/03/02 07:12:42;;;;;;;38.88;35.03;;;1.90;99.90;;;;;;5011334;28;20599;-74
2022/03/02 07:15:09;;;;;;;38.35;34.47;;;2.00;99.90;;;;;;5021540;28;20780;-75
2022/03/02 07:17:37;;;;;;;43.70;37.10;;;2.10;99.90;;;;;;5007710;28;20080;-74
2022/03/02 07:20:06;;;;;;;42.60;38.05;;;2.20;99.90;;;;;;5000922;28;20081;-74
2022/03/02 07:22:36;;;;;;;42.28;37.92;;;2.30;99.90;;;;;;4980193;28;20124;-74
2022/03/02 07:25:06;;;;;;;41.72;36.55;;;2.40;99.90;;;;;;4999584;28;20049;-75
2022/03/02 07:27:38;;;;;;;38.38;34.60;;;2.40;99.90;;;;;;5003729;28;20163;-75
2022/03/02 07:30:06;;;;;;;38.70;34.85;;;2.40;99.90;;;;;;5013807;28;20075;-75
2022/03/02 07:32:35;;;;;;;38.38;34.78;;;2.40;99.90;;;;;;5001697;28;20049;-75
2022/03/02 07:35:05;;;;;;;40.20;36.30;;;2.30;99.90;;;;;;5002138;28;20045;-75
2022/03/02 07:37:32;;;;;;;42.50;38.05;;;2.50;99.90;;;;;;5019190;28;20057;-74
2022/03/02 07:39:59;;;;;;;39.72;35.65;;;2.60;99.90;;;;;;4998669;28;20223;-75
2022/03/02 07:42:26;;;;;;;39.72;35.53;;;2.80;99.90;;;;;;5025216;28;20037;-74
2022/03/02 07:44:54;;;;;;;37.33;33.47;;;2.90;99.90;;;;;;5014370;28;20303;-74
2022/03/02 07:47:21;;;;;;;36.35;33.20;;;2.90;99.90;;;;;;5001437;28;20044;-75
2022/03/02 07:49:48;;;;;;;35.72;32.60;;;3.00;99.90;;;;;;4999801;28;20500;-74
2022/03/02 07:52:16;;;;;;;35.10;31.95;;;3.10;99.90;;;;;;4986145;28;20050;-75
2022/03/02 07:54:44;;;;;;;35.20;32.05;;;3.00;99.90;;;;;;5002637;28;20488;-75
2022/03/02 07:57:14;;;;;;;33.17;30.48;;;3.00;99.90;;;;;;5006422;28;20755;-75
2022/03/02 07:59:44;;;;;;;35.17;31.85;;;3.00;99.90;;;;;;5016847;28;20054;-75
2022/03/02 08:02:13;;;;;;;36.15;32.90;;;3.10;99.90;;;;;;5001296;28;20054;-75
2022/03/02 08:04:42;;;;;;;36.53;33.35;;;3.20;99.90;;;;;;5002290;28;20058;-74
2022/03/02 08:07:12;;;;;;;37.28;34.05;;;3.20;99.90;;;;;;4997933;28;20108;-74
2022/03/02 08:09:40;;;;;;;35.55;32.55;;;3.20;99.90;;;;;;4991050;28;20123;-74
2022/03/02 08:12:07;;;;;;;37.28;34.03;;;3.20;99.90;;;;;;4998736;28;20570;-75
2022/03/02 08:14:35;;;;;;;39.22;35.83;;;3.20;99.90;;;;;;4995979;28;20047;-73
2022/03/02 08:17:03;;;;;;;40.85;37.45;;;3.30;99.90;;;;;;4999535;28;20037;-73
2022/03/02 08:19:33;;;;;;;41.03;37.35;;;3.50;99.90;;;;;;5009619;28;20515;-74
2022/03/02 08:22:05;;;;;;;39.90;36.70;;;3.60;99.90;;;;;;4991472;28;20049;-74
2022/03/02 08:24:33;;;;;;;37.53;34.53;;;3.70;99.90;;;;;;5003299;28;20107;-74
2022/03/02 08:27:04;;;;;;;39.67;36.28;;;3.90;99.90;;;;;;5002880;28;20049;-73
2022/03/02 08:29:32;;;;;;;37.40;34.40;;;4.10;99.90;;;;;;4983504;28;20054;-73
2022/03/02 08:32:02;;;;;;;34.63;31.85;;;4.00;99.90;;;;;;4999920;28;20118;-74
2022/03/02 08:34:33;;;;;;;35.53;32.47;;;4.30;99.90;;;;;;5002754;28;20068;-72
2022/03/02 08:37:01;;;;;;;36.58;33.72;;;4.70;99.90;;;;;;5001675;28;20163;-73
2022/03/02 08:39:28;;;;;;;36.55;33.78;;;4.80;99.90;;;;;;5002103;28;20513;-73
2022/03/02 08:41:55;;;;;;;36.50;33.80;;;5.00;99.90;;;;;;5007880;28;20042;-73
2022/03/02 08:44:22;;;;;;;36.80;34.10;;;5.10;99.90;;;;;;5023725;28;20045;-75
2022/03/02 08:46:49;;;;;;;36.45;33.65;;;5.10;99.90;;;;;;5021674;28;20075;-72
2022/03/02 08:49:19;;;;;;;36.78;33.95;;;5.10;99.90;;;;;;5003787;28;20137;-72
2022/03/02 08:51:49;;;;;;;34.47;31.73;;;5.10;99.90;;;;;;5006009;28;20050;-73
2022/03/02 08:54:19;;;;;;;35.28;32.67;;;5.40;99.90;;;;;;5028017;28;20041;-72
2022/03/02 08:56:47;;;;;;;36.35;33.55;;;5.50;99.90;;;;;;4998661;28;20127;-73
2022/03/02 08:59:15;;;;;;;35.22;32.72;;;5.70;99.90;;;;;;5014848;28;20066;-73
2022/03/02 09:01:50;;;;;;;38.83;35.83;;;6.00;99.90;;;;;;5026464;28;20286;-72
2022/03/02 09:04:18;;;;;;;40.00;36.88;;;6.20;99.90;;;;;;5043548;28;20049;-73
2022/03/02 09:06:46;;;;;;;39.13;36.03;;;6.30;99.90;;;;;;5018775;28;20045;-73
2022/03/02 09:09:13;;;;;;;36.70;34.20;;;6.60;99.90;;;;;;5018220;28;20060;-73
2022/03/02 09:11:41;;;;;;;39.28;36.42;;;6.80;99.90;;;;;;4997292;28;20076;-73
2022/03/02 09:14:08;;;;;;;37.95;35.05;;;6.70;99.90;;;;;;5023790;28;20057;-73
2022/03/02 09:16:39;;;;;;;38.95;36.25;;;6.70;99.90;;;;;;4998601;28;20038;-73
2022/03/02 09:19:07;;;;;;;38.28;35.45;;;6.90;99.90;;;;;;5000186;28;20053;-73
2022/03/02 09:21:34;;;;;;;39.55;36.45;;;7.20;99.90;;;;;;4998902;28;20057;-73
2022/03/02 09:24:01;;;;;;;40.10;37.15;;;7.30;99.90;;;;;;5016352;28;20065;-73
2022/03/02 09:26:27;;;;;;;39.22;36.67;;;7.60;99.90;;;;;;4989415;28;20081;-73
2022/03/02 09:28:54;;;;;;;40.72;37.92;;;7.90;99.90;;;;;;4999835;28;20414;-73
2022/03/02 09:31:23;;;;;;;39.65;36.78;;;8.10;99.90;;;;;;5025150;28;20342;-73
2022/03/02 09:33:56;;;;;;;37.40;34.75;;;8.00;99.90;;;;;;5025625;28;20220;-73
2022/03/02 09:36:26;;;;;;;36.88;34.28;;;7.90;99.90;;;;;;5016080;28;20053;-73
2022/03/02 09:38:54;;;;;;;36.97;34.13;;;7.70;99.90;;;;;;5018253;28;20077;-73
2022/03/02 09:41:28;;;;;;;37.58;34.47;;;7.20;99.90;;;;;;5017891;28;20045;-73
2022/03/02 09:43:58;;;;;;;39.95;37.25;;;7.10;99.90;;;;;;5028887;28;20568;-73
2022/03/02 09:46:49;;;;;;;40.75;37.80;;;7.00;99.90;;;;;;5000942;28;20053;-73
2022/03/02 09:49:20;;;;;;;39.42;37.00;;;7.10;99.90;;;;;;5006761;28;20116;-73
2022/03/02 09:51:52;;;;;;;37.90;35.13;;;7.00;99.90;;;;;;5013715;28;20295;-73
2022/03/02 09:54:23;;;;;;;39.67;37.00;;;7.00;99.90;;;;;;5017093;28;20041;-73
2022/03/02 09:56:51;;;;;;;38.67;35.85;;;7.00;99.90;;;;;;5013385;28;20045;-72
2022/03/02 09:59:18;;;;;;;40.00;37.15;;;7.10;99.90;;;;;;5001299;28;20096;-73
2022/03/02 10:01:45;;;;;;;39.38;36.35;;;7.20;99.90;;;;;;5026469;28;20582;-73
2022/03/02 10:04:23;;;;;;;38.50;35.70;;;7.50;99.90;;;;;;5006895;28;20069;-73
2022/03/02 10:07:26;;;;;;;38.80;36.05;;;7.60;99.90;;;;;;5017991;28;20057;-72
2022/03/02 10:09:48;;;;;;;37.42;34.75;;;7.90;99.90;;;;;;5004862;28;20192;-73
2022/03/02 10:12:15;;;;;;;38.33;35.28;;;8.10;99.90;;;;;;5027165;28;20060;-72
2022/03/02 10:14:43;;;;;;;37.03;34.33;;;8.10;99.90;;;;;;5028943;28;20437;-73
2022/03/02 10:17:17;;;;;;;37.08;34.33;;;8.10;99.90;;;;;;5021654;28;20053;-73
2022/03/02 10:19:46;;;;;;;;;;;8.20;99.90;;;;;;5019821;28;20592;-73
2022/03/02 10:22:18;;;;;;;39.00;35.83;;;8.20;99.90;;;;;;5022173;28;20143;-73
2022/03/02 10:24:49;;;;;;;37.42;34.83;;;8.20;99.90;;;;;;5021644;28;20301;-72
2022/03/02 10:27:33;;;;;;;37.90;34.88;;;8.30;99.90;;;;;;5018907;28;20053;-73
2022/03/02 10:30:09;;;;;;;33.67;30.90;;;7.90;99.90;;;;;;5008035;28;20057;-73
2022/03/02 10:32:42;;;;;;;35.65;32.53;;;8.10;99.90;;;;;;5033879;28;20037;-73
2022/03/02 10:35:13;;;;;;;36.85;33.53;;;8.10;99.90;;;;;;5041281;28;20106;-73
2022/03/02 10:37:57;;;;;;;39.20;36.50;;;7.80;99.90;;;;;;5033721;28;20046;-74
2022/03/02 10:40:24;;;;;;;39.70;36.97;;;7.60;99.90;;;;;;5032991;28;20122;-74
2022/03/02 10:43:04;;;;;;;38.10;35.53;;;7.90;99.90;;;;;;5020234;28;20053;-73
2022/03/02 10:45:44;;;;;;;37.95;35.25;;;7.90;99.90;;;;;;5000574;28;20100;-73
2022/03/02 10:48:14;;;;;;;37.72;35.03;;;7.90;99.90;;;;;;5012875;28;20065;-73
2022/03/02 10:50:43;;;;;;;36.53;34.03;;;8.20;99.90;;;;;;5008250;28;20564;-74
2022/03/02 10:53:15;;;;;;;36.60;34.13;;;8.30;99.90;;;;;;5022284;28;20127;-73
2022/03/02 10:55:45;;;;;;;35.47;32.65;;;8.50;99.90;;;;;;5002794;28;20709;-73
2022/03/02 10:58:18;;;;;;;36.63;34.22;;;8.60;99.90;;;;;;5016167;28;20050;-73
2022/03/02 11:00:47;;;;;;;37.38;34.58;;;8.40;99.90;;;;;;5023680;28;20037;-74
2022/03/02 11:03:14;;;;;;;38.67;35.97;;;8.40;99.90;;;;;;5012125;28;20060;-73
2022/03/02 11:05:42;;;;;;;39.72;36.95;;;8.50;99.90;;;;;;5006156;28;20097;-74
2022/03/02 11:08:08;;;;;;;38.55;36.13;;;8.60;99.90;;;;;;5012051;28;20113;-74
2022/03/02 11:10:40;;;;;;;39.35;36.83;;;8.60;99.90;;;;;;5013713;28;20409;-74
2022/03/02 11:13:11;;;;;;;37.38;34.97;;;9.00;99.90;;;;;;5006334;28;20054;-74
2022/03/02 11:15:51;;;;;;;39.38;36.50;;;9.40;99.90;;;;;;4997980;28;20049;-74
2022/03/02 11:18:31;;;;;;;39.60;36.92;;;9.40;99.20;;;;;;4964238;28;20453;-74
2022/03/02 11:21:02;;;;;;;39.80;37.00;;;9.30;99.90;;;;;;4965110;28;20512;-74
2022/03/02 11:23:33;;;;;;;38.05;35.42;;;9.20;98.90;;;;;;4999466;28;20053;-73
2022/03/02 11:26:07;;;;;;;37.83;35.22;;;9.00;99.80;;;;;;4981517;28;20061;-73
2022/03/02 11:28:35;;;;;;;39.78;37.00;;;9.10;99.90;;;;;;4960005;28;20116;-73
2022/03/02 11:31:05;;;;;;;37.22;34.55;;;9.10;97.50;;;;;;4992962;28;20053;-73
2022/03/02 11:33:33;;;;;;;39.65;36.95;;;9.10;97.50;;;;;;4983075;28;20052;-73
2022/03/02 11:36:13;;;;;;;39.42;36.72;;;9.10;98.70;;;;;;4980405;28;20662;-73
2022/03/02 11:38:43;;;;;;;39.67;36.67;;;9.10;99.80;;;;;;4963865;28;20050;-73
2022/03/02 11:41:11;;;;;;;40.60;37.78;;;9.20;99.90;;;;;;4981516;28;20528;-73
2022/03/02 11:43:38;;;;;;;39.92;37.03;;;9.40;99.90;;;;;;5002485;28;20038;-73
2022/03/02 11:46:07;;;;;;;40.00;37.30;;;9.60;99.90;;;;;;4979505;28;20062;-73
2022/03/02 11:48:40;;;;;;;39.33;36.58;;;9.20;99.90;;;;;;4998952;28;20055;-74
2022/03/02 11:51:21;;;;;;;40.70;37.78;;;9.20;99.90;;;;;;4990339;28;20541;-73
2022/03/02 11:53:52;;;;;;;39.47;36.78;;;9.10;99.90;;;;;;4982767;28;20789;-74
2022/03/02 11:56:24;;;;;;;39.60;36.70;;;9.00;99.90;;;;;;4976872;28;20074;-73
2022/03/02 11:59:07;;;;;;;39.63;36.72;;;9.10;99.90;;;;;;4982786;28;20056;-73
2022/03/02 12:01:53;;;;;;;38.75;35.80;;;9.20;99.90;;;;;;4982915;28;20042;-73
2022/03/02 12:04:31;;;;;;;39.67;36.72;;;9.10;99.90;;;;;;5019423;28;20057;-73
2022/03/02 12:07:03;;;;;;;40.28;36.83;;;8.80;99.90;;;;;;4985069;28;20085;-73
2022/03/02 12:09:37;;;;;;;39.85;37.03;;;8.50;99.90;;;;;;5001396;28;20141;-73
2022/03/02 12:12:11;;;;;;;39.33;36.58;;;8.50;99.90;;;;;;5008392;28;20045;-73
2022/03/02 12:14:54;;;;;;;38.28;35.53;;;8.80;99.90;;;;;;4991644;28;20057;-73
2022/03/02 12:17:28;;;;;;;38.08;35.25;;;9.00;99.90;;;;;;5000908;28;20038;-73
2022/03/02 12:19:57;;;;;;;38.42;35.63;;;9.00;99.90;;;;;;4999933;28;20081;-73
2022/03/02 12:22:36;;;;;;;40.25;37.30;;;9.00;99.90;;;;;;5016139;28;20049;-73
2022/03/02 12:25:05;;;;;;;39.60;36.75;;;8.80;99.90;;;;;;5001074;28;20760;-73
2022/03/02 12:27:31;;;;;;;36.33;33.55;;;8.60;99.90;;;;;;5004882;28;20057;-73
2022/03/02 12:30:01;;;;;;;38.65;35.95;;;8.60;99.90;;;;;;4985475;28;20088;-73
2022/03/02 12:32:30;;;;;;;39.35;36.55;;;8.60;99.90;;;;;;4985014;28;20088;-73
2022/03/02 12:34:58;;;;;;;39.78;37.05;;;8.80;99.90;;;;;;5017213;28;20087;-73
2022/03/02 12:37:27;;;;;;;37.42;34.58;;;9.10;99.90;;;;;;5018560;28;20049;-74
2022/03/02 12:39:54;;;;;;;34.53;31.92;;;9.00;99.90;;;;;;4998413;28;20036;-74
2022/03/02 12:42:21;;;;;;;36.85;34.03;;;8.90;99.90;;;;;;5027668;28;20048;-74
2022/03/02 12:44:55;;;;;;;35.28;32.58;;;8.80;99.90;;;;;;5019233;28;20049;-74
2022/03/02 12:47:28;;;;;;;36.05;33.35;;;9.00;99.90;;;;;;5009195;28;20054;-74